Time;durP1;ratioP1;P1;durP2;ratioP2;P2;SDS_P1;SDS_P2;PMS_P1;PMS_P2;Temp;Humidity;BMP_temperature;BMP_pressure;BME280_temperature;BME280_humidity;BME280_pressure;Samples;Min_cycle;Max_cycle;Signal;HPM_P1;HPM_P2
2023/03/31 00:00:42;;;;;;;23.23;16.55;;;;;;;8.37;72.96;97749.56;5063316;28;20040;-70
2023/03/31 00:03:12;;;;;;;26.17;16.25;;;;;;;8.32;73.00;97756.75;5053587;28;20033;-70
2023/03/31 00:05:38;;;;;;;;;;;;;;;8.29;72.96;97760.09;5053849;28;20079;-71
2023/03/31 00:08:04;;;;;;;36.78;20.95;;;;;;;8.26;72.60;97755.22;5053897;28;20323;-70
2023/03/31 00:10:32;;;;;;;31.40;19.13;;;;;;;8.20;73.10;97753.69;5053437;28;20017;-71
2023/03/31 00:12:59;;;;;;;74.65;39.10;;;;;;;8.15;72.73;97753.75;5053387;28;20064;-70
2023/03/31 00:15:26;;;;;;;63.88;34.13;;;;;;;8.09;72.41;97747.56;5053627;28;20029;-70
2023/03/31 00:17:51;;;;;;;60.65;27.88;;;;;;;8.01;72.54;97748.25;5053072;28;20493;-70
2023/03/31 00:20:16;;;;;;;66.38;28.63;;;;;;;7.96;72.46;97749.13;5053288;28;20029;-71
2023/03/31 00:22:45;;;;;;;40.10;23.77;;;;;;;7.91;73.13;97746.50;5054861;28;20386;-70
2023/03/31 00:25:12;;;;;;;47.83;24.35;;;;;;;7.86;72.98;97746.56;5072872;28;20077;-70
2023/03/31 00:27:40;;;;;;;48.50;24.90;;;;;;;7.81;72.85;97744.69;5073021;28;20028;-71
2023/03/31 00:30:07;;;;;;;48.40;25.38;;;;;;;7.79;73.25;97740.66;5072695;28;20028;-70
2023/03/31 00:32:32;;;;;;;42.35;23.15;;;;;;;7.77;73.56;97742.88;5073010;28;20044;-71
2023/03/31 00:35:01;;;;;;;40.90;21.40;;;;;;;7.72;72.84;97749.22;5072566;28;20056;-70
2023/03/31 00:37:27;;;;;;;40.13;21.40;;;;;;;7.73;73.67;97748.91;5053148;28;20036;-71
2023/03/31 00:39:52;;;;;;;82.47;41.75;;;;;;;7.73;73.21;97748.13;5053003;28;20021;-70
2023/03/31 00:42:18;;;;;;;71.38;37.60;;;;;;;7.71;73.34;97745.66;5061798;28;20404;-71
2023/03/31 00:45:08;;;;;;;42.55;23.30;;;;;;;7.69;73.65;97753.34;5093081;28;20020;-70
2023/03/31 00:47:34;;;;;;;46.03;22.60;;;;;;;7.71;73.71;97758.50;5093096;28;20028;-70
2023/03/31 00:49:59;;;;;;;46.25;22.52;;;;;;;7.73;73.60;97753.56;5093246;28;20480;-70
2023/03/31 00:52:36;;;;;;;30.30;17.45;;;;;;;7.75;73.65;97752.16;5092944;28;20024;-71
2023/03/31 00:55:09;;;;;;;31.25;18.23;;;;;;;7.77;73.76;97743.66;5074949;28;20500;-70
2023/03/31 00:57:38;;;;;;;26.45;16.60;;;;;;;7.81;73.78;97743.91;5092573;28;20044;-70
2023/03/31 01:00:14;;;;;;;25.67;16.40;;;;;;;7.84;73.46;97733.19;5092866;28;20532;-71
2023/03/31 01:02:54;;;;;;;23.13;15.77;;;;;;;7.85;73.58;97734.00;5091715;28;20035;-70
2023/03/31 01:05:22;;;;;;;;;;;;;;;7.88;73.85;97736.97;5093218;28;20040;-71
2023/03/31 01:07:49;;;;;;;21.45;14.45;;;;;;;7.88;73.63;97738.88;5074521;28;19954;-70
2023/03/31 01:10:15;;;;;;;24.13;14.55;;;;;;;7.88;74.06;97733.44;5092268;28;20048;-70
2023/03/31 01:12:46;;;;;;;24.90;14.95;;;;;;;7.89;74.07;97729.59;5092720;28;20066;-71
2023/03/31 01:15:11;;;;;;;30.33;18.35;;;;;;;7.88;73.95;97727.97;5093051;28;20457;-70
2023/03/31 01:17:37;;;;;;;46.55;23.55;;;;;;;7.87;73.95;97731.81;5092673;28;20020;-71
2023/03/31 01:20:11;;;;;;;41.50;19.98;;;;;;;7.85;74.03;97729.34;5092694;28;20460;-71
2023/03/31 01:23:01;;;;;;;31.42;17.05;;;;;;;7.85;73.87;97739.47;5092935;28;20456;-70
2023/03/31 01:25:41;;;;;;;29.27;16.48;;;;;;;7.86;74.19;97730.19;5092612;28;20031;-71
2023/03/31 01:28:25;;;;;;;26.73;15.18;;;;;;;7.87;74.47;97743.53;5092830;28;20024;-71
2023/03/31 01:31:29;;;;;;;24.65;14.60;;;;;;;7.88;74.58;97738.88;5092533;28;20111;-71
2023/03/31 01:34:33;;;;;;;23.13;14.15;;;;;;;7.88;74.33;97741.63;5089690;28;20113;-70
2023/03/31 01:37:36;;;;;;;23.30;14.40;;;;;;;7.85;74.21;97736.75;5092452;28;20555;-70
2023/03/31 01:40:17;;;;;;;25.58;14.50;;;;;;;7.84;74.24;97732.41;5092098;28;20020;-70
2023/03/31 01:42:51;;;;;;;18.88;12.43;;;;;;;7.78;74.31;97736.31;5091893;28;20044;-71
2023/03/31 01:45:22;;;;;;;18.83;11.77;;;;;;;7.73;74.25;97731.75;5092117;28;20036;-70
2023/03/31 01:47:58;;;;;;;19.63;13.13;;;;;;;7.68;74.81;97727.16;5092153;28;20028;-70
2023/03/31 01:51:04;;;;;;;19.05;12.80;;;;;;;7.63;74.03;97732.69;5091711;28;20024;-70
2023/03/31 01:53:36;;;;;;;24.90;16.05;;;;;;;7.63;74.27;97729.16;5091877;28;20099;-71
2023/03/31 01:56:01;;;;;;;24.73;14.90;;;;;;;7.64;74.30;97734.31;5091800;28;20032;-71
2023/03/31 01:58:37;;;;;;;20.15;13.18;;;;;;;7.63;74.30;97734.59;5091817;28;20032;-70
2023/03/31 02:01:19;;;;;;;25.02;13.82;;;;;;;7.62;74.39;97731.06;5091193;28;20032;-71
2023/03/31 02:04:01;;;;;;;24.00;14.73;;;;;;;7.63;74.49;97727.22;5087823;28;20026;-71
2023/03/31 02:06:33;;;;;;;19.67;13.25;;;;;;;7.65;74.44;97732.41;5091344;28;20035;-71
2023/03/31 02:09:07;;;;;;;19.23;12.85;;;;;;;7.64;74.29;97723.38;5091011;28;20035;-70
2023/03/31 02:11:34;;;;;;;17.48;12.43;;;;;;;7.64;74.59;97717.94;5090971;28;20092;-71
2023/03/31 02:14:02;;;;;;;16.88;11.63;;;;;;;7.64;74.92;97715.19;5072977;28;20533;-70
2023/03/31 02:16:31;;;;;;;19.00;13.50;;;;;;;7.66;74.37;97717.66;5073020;28;20495;-70
2023/03/31 02:19:04;;;;;;;17.30;11.27;;;;;;;7.66;74.21;97721.16;5090930;28;20035;-70
2023/03/31 02:21:35;;;;;;;19.75;12.68;;;;;;;7.64;74.77;97717.94;5090572;28;20032;-71
2023/03/31 02:24:04;;;;;;;17.80;12.27;;;;;;;7.65;74.10;97729.66;5090551;28;20028;-70
2023/03/31 02:26:36;;;;;;;17.45;11.82;;;;;;;7.65;74.47;97718.75;5090887;28;20032;-70
2023/03/31 02:29:02;;;;;;;18.25;13.32;;;;;;;7.63;74.67;97710.03;5090689;28;20024;-71
2023/03/31 02:31:30;;;;;;;16.15;12.27;;;;;;;7.60;73.92;97711.44;5090781;28;20539;-71
2023/03/31 02:33:57;;;;;;;18.08;12.90;;;;;;;7.56;74.72;97711.22;5090603;28;20055;-70
2023/03/31 02:36:23;;;;;;;21.48;16.45;;;;;;;7.53;74.32;97706.34;5090352;28;20036;-70
2023/03/31 02:39:05;;;;;;;19.42;13.05;;;;;;;7.49;74.32;97712.72;5090401;28;20047;-70
2023/03/31 02:41:31;;;;;;;16.73;11.38;;;;;;;7.49;74.64;97713.50;5090359;28;20035;-71
2023/03/31 02:43:56;;;;;;;17.08;12.27;;;;;;;7.50;74.71;97706.94;5090735;28;20194;-70
2023/03/31 02:46:22;;;;;;;18.08;12.50;;;;;;;7.53;74.35;97714.53;5090744;28;20107;-70
2023/03/31 02:48:52;;;;;;;18.60;12.13;;;;;;;7.51;74.35;97705.03;5090302;28;20480;-71
2023/03/31 02:51:31;;;;;;;;;;;;;;;7.53;74.73;97705.56;5090840;28;20074;-71
2023/03/31 02:54:17;;;;;;;20.13;13.07;;;;;;;7.53;74.46;97702.81;5090400;28;20386;-70
2023/03/31 02:57:20;;;;;;;17.25;12.23;;;;;;;7.47;74.27;97701.28;5071902;28;20073;-70
2023/03/31 02:59:48;;;;;;;19.63;12.85;;;;;;;7.43;74.32;97703.75;5071774;28;20492;-71
2023/03/31 03:02:41;;;;;;;20.90;12.48;;;;;;;7.39;74.46;97697.25;5090041;28;20024;-71
2023/03/31 03:05:33;;;;;;;20.35;13.45;;;;;;;7.35;74.45;97691.59;5090140;28;20495;-70
2023/03/31 03:08:11;;;;;;;19.17;13.57;;;;;;;7.33;74.46;97699.25;5090089;28;20376;-70
2023/03/31 03:11:05;;;;;;;21.67;14.60;;;;;;;7.28;74.36;97694.69;5071799;28;20027;-71
2023/03/31 03:13:46;;;;;;;21.13;13.93;;;;;;;7.25;74.96;97694.47;5090321;28;20020;-70
2023/03/31 03:16:42;;;;;;;22.40;14.50;;;;;;;7.20;74.79;97687.16;5090145;28;20063;-71
2023/03/31 03:19:08;;;;;;;18.60;12.65;;;;;;;7.17;74.84;97685.03;5087822;28;20046;-70
2023/03/31 03:21:34;;;;;;;20.02;13.65;;;;;;;7.12;74.69;97680.47;5090035;28;20043;-70
2023/03/31 03:24:00;;;;;;;22.38;13.40;;;;;;;7.07;74.64;97682.41;5072130;28;20035;-69
2023/03/31 03:26:26;;;;;;;19.20;13.00;;;;;;;7.05;74.67;97677.28;5094138;28;20036;-69
2023/03/31 03:28:54;;;;;;;19.08;13.50;;;;;;;7.05;74.85;97687.34;5075641;28;20114;-69
2023/03/31 03:31:22;;;;;;;18.40;13.65;;;;;;;7.05;75.06;97684.63;5094138;28;20487;-69
2023/03/31 03:33:49;;;;;;;21.67;14.73;;;;;;;7.04;75.38;97683.00;5094005;28;20073;-69
2023/03/31 03:36:14;;;;;;;18.23;12.70;;;;;;;7.04;75.26;97680.28;5094503;28;20043;-69
2023/03/31 03:38:40;;;;;;;22.02;14.60;;;;;;;7.00;74.95;97680.06;5094114;28;20028;-69
2023/03/31 03:41:05;;;;;;;22.08;15.18;;;;;;;6.95;74.96;97674.66;5093808;28;20155;-69
2023/03/31 03:43:31;;;;;;;18.60;13.63;;;;;;;6.92;75.10;97672.53;5093527;28;20380;-68
2023/03/31 03:45:56;;;;;;;16.95;11.63;;;;;;;6.89;75.27;97667.66;5093791;28;20028;-69
2023/03/31 03:48:22;;;;;;;18.88;14.02;;;;;;;6.84;74.78;97661.16;5093981;28;20392;-69
2023/03/31 03:50:47;;;;;;;16.23;11.82;;;;;;;6.82;75.06;97665.28;5093548;28;20063;-69
2023/03/31 03:53:14;;;;;;;15.15;10.68;;;;;;;6.79;75.38;97663.16;5094369;28;20024;-69
2023/03/31 03:55:39;;;;;;;17.77;11.57;;;;;;;6.75;75.18;97662.91;5093969;28;20028;-69
2023/03/31 03:58:05;;;;;;;17.55;12.00;;;;;;;6.70;74.77;97666.50;5094047;28;20039;-69
2023/03/31 04:00:31;;;;;;;15.60;10.65;;;;;;;6.67;75.25;97674.47;5093490;28;20028;-69
2023/03/31 04:02:56;;;;;;;17.00;11.57;;;;;;;6.65;75.07;97660.31;5093558;28;20068;-69
2023/03/31 04:05:22;;;;;;;18.67;11.82;;;;;;;6.62;75.14;97663.63;5093564;28;20031;-68
2023/03/31 04:07:47;;;;;;;17.23;10.32;;;;;;;6.57;75.28;97658.22;5093843;28;20127;-69
2023/03/31 04:10:13;;;;;;;15.98;10.73;;;;;;;6.55;75.31;97663.94;5093517;28;20024;-68
2023/03/31 04:12:38;;;;;;;18.30;12.10;;;;;;;6.53;75.29;97660.69;5093780;28;20024;-69
2023/03/31 04:15:04;;;;;;;16.55;11.50;;;;;;;6.50;75.53;97658.56;5093536;28;20427;-69
2023/03/31 04:17:33;;;;;;;14.35;9.73;;;;;;;6.47;75.90;97659.94;5093446;28;20027;-69
2023/03/31 04:20:06;;;;;;;17.65;11.30;;;;;;;6.44;75.30;97657.78;5093178;28;20020;-69
2023/03/31 04:22:39;;;;;;;14.82;10.90;;;;;;;6.42;75.42;97656.47;5093473;28;20040;-69
2023/03/31 04:25:13;;;;;;;16.13;12.02;;;;;;;6.36;75.69;97651.09;5093117;28;20039;-69
2023/03/31 04:27:54;;;;;;;19.27;13.68;;;;;;;6.33;75.89;97654.38;5092958;28;20035;-69
2023/03/31 04:30:21;;;;;;;18.27;12.20;;;;;;;6.32;75.65;97646.47;5093382;28;20024;-69
2023/03/31 04:32:52;;;;;;;20.67;15.65;;;;;;;6.30;75.92;97637.81;5093134;28;20031;-69
2023/03/31 04:35:19;;;;;;;24.83;18.13;;;;;;;6.29;75.59;97639.72;5092987;28;20064;-68
2023/03/31 04:37:46;;;;;;;21.40;14.93;;;;;;;6.28;75.96;97648.97;5092839;28;20035;-68
2023/03/31 04:40:12;;;;;;;19.42;13.75;;;;;;;6.29;76.42;97644.34;5092723;28;20107;-70
2023/03/31 04:42:37;;;;;;;18.27;12.65;;;;;;;6.29;75.86;97644.34;5092911;28;20119;-71
2023/03/31 04:45:03;;;;;;;18.48;12.38;;;;;;;6.30;76.30;97640.53;5093249;28;20024;-71
2023/03/31 04:47:29;;;;;;;28.23;22.80;;;;;;;6.30;75.75;97632.38;5093042;28;20074;-71
2023/03/31 04:49:54;;;;;;;25.05;17.83;;;;;;;6.32;76.07;97630.13;5092826;28;20107;-70
2023/03/31 04:52:20;;;;;;;46.10;26.58;;;;;;;6.32;76.28;97627.41;5091758;28;20024;-71
2023/03/31 04:54:45;;;;;;;56.72;31.55;;;;;;;6.33;75.97;97626.31;5073224;28;20023;-71
2023/03/31 04:57:11;;;;;;;38.22;24.05;;;;;;;6.32;76.38;97622.78;5091545;28;20161;-70
2023/03/31 04:59:36;;;;;;;22.60;16.67;;;;;;;6.33;76.46;97624.41;5091443;28;20016;-71
2023/03/31 05:02:02;;;;;;;23.33;17.33;;;;;;;6.34;76.13;97622.50;5091625;28;20365;-71
2023/03/31 05:04:27;;;;;;;19.50;14.95;;;;;;;6.34;76.12;97617.88;5091716;28;20065;-71
2023/03/31 05:06:54;;;;;;;19.13;14.48;;;;;;;6.36;76.84;97612.13;5092156;28;20020;-71
2023/03/31 05:09:19;;;;;;;19.17;14.02;;;;;;;6.38;76.53;97613.47;5073735;28;20077;-71
2023/03/31 05:11:45;;;;;;;21.13;14.60;;;;;;;6.39;76.41;97615.09;5091850;28;20800;-71
2023/03/31 05:14:10;;;;;;;18.30;14.02;;;;;;;6.43;76.40;97614.53;5092166;28;20150;-71
2023/03/31 05:16:36;;;;;;;23.00;18.63;;;;;;;6.46;76.48;97616.66;5092487;28;20143;-71
2023/03/31 05:19:01;;;;;;;18.23;13.75;;;;;;;6.49;77.15;97610.63;5092166;28;20606;-71
2023/03/31 05:21:29;;;;;;;19.42;14.65;;;;;;;6.51;76.69;97608.44;5091740;28;20032;-71
2023/03/31 05:23:55;;;;;;;17.65;12.55;;;;;;;6.55;76.74;97610.28;5092254;28;20032;-71
2023/03/31 05:26:21;;;;;;;18.45;13.40;;;;;;;6.60;76.73;97606.66;5092158;28;20035;-71
2023/03/31 05:28:47;;;;;;;18.73;13.13;;;;;;;6.65;76.82;97600.38;5092263;28;20021;-71
2023/03/31 05:31:13;;;;;;;20.38;12.55;;;;;;;6.69;77.38;97596.75;5091854;28;20016;-71
2023/03/31 05:33:40;;;;;;;21.80;13.63;;;;;;;6.73;77.12;97598.91;5091901;28;20036;-71
2023/03/31 05:36:11;;;;;;;18.85;11.60;;;;;;;6.77;76.86;97608.13;5092110;28;20051;-71
2023/03/31 05:38:36;;;;;;;17.10;10.45;;;;;;;6.82;76.95;97608.84;5092211;28;20384;-71
2023/03/31 05:41:03;;;;;;;18.60;11.20;;;;;;;6.87;77.14;97605.25;5091008;28;20039;-71
2023/03/31 05:43:29;;;;;;;16.17;11.27;;;;;;;6.92;77.23;97604.38;5073478;28;20115;-71
2023/03/31 05:45:54;;;;;;;17.60;10.65;;;;;;;6.97;77.09;97602.38;5073772;28;20399;-71
2023/03/31 05:48:20;;;;;;;16.23;10.60;;;;;;;7.06;76.77;97604.44;5091464;28;20067;-71
2023/03/31 05:50:45;;;;;;;16.17;10.68;;;;;;;7.13;77.29;97604.91;5091418;28;20591;-71
2023/03/31 05:53:11;;;;;;;15.15;9.52;;;;;;;7.21;77.16;97606.16;5091576;28;20020;-71
2023/03/31 05:55:38;;;;;;;16.00;9.75;;;;;;;7.28;77.29;97604.69;5091324;28;20081;-71
2023/03/31 05:58:03;;;;;;;13.77;8.70;;;;;;;7.39;76.94;97607.25;5091181;28;20051;-71
2023/03/31 06:00:30;;;;;;;13.02;8.15;;;;;;;7.49;77.09;97600.84;5090857;28;20490;-71
2023/03/31 06:02:56;;;;;;;13.10;8.27;;;;;;;7.59;77.33;97601.47;5090672;28;20024;-71
2023/03/31 06:05:25;;;;;;;16.45;10.45;;;;;;;7.68;77.06;97598.06;5090870;28;20059;-71
2023/03/31 06:07:51;;;;;;;14.87;9.47;;;;;;;7.77;76.82;97593.53;5090859;28;20063;-71
2023/03/31 06:10:17;;;;;;;12.38;8.73;;;;;;;7.88;77.04;97602.38;5072130;28;20024;-71
2023/03/31 06:12:42;;;;;;;12.68;7.57;;;;;;;7.97;76.46;97595.09;5090369;28;20101;-71
2023/03/31 06:15:08;;;;;;;12.60;7.35;;;;;;;8.05;76.74;97599.06;5090823;28;20054;-71
2023/03/31 06:17:33;;;;;;;14.82;8.00;;;;;;;8.05;76.18;97597.13;5090311;28;20039;-71
2023/03/31 06:19:58;;;;;;;12.95;8.05;;;;;;;8.07;76.35;97590.56;5090573;28;20028;-70
2023/03/31 06:22:24;;;;;;;11.57;8.20;;;;;;;8.10;76.01;97595.44;5090998;28;20103;-71
2023/03/31 06:24:49;;;;;;;13.10;9.02;;;;;;;8.11;76.32;97589.69;5091091;28;20028;-71
2023/03/31 06:27:14;;;;;;;9.70;6.68;;;;;;;8.14;75.71;97578.16;5065260;28;20051;-70
2023/03/31 06:29:40;;;;;;;9.45;7.35;;;;;;;8.22;75.96;97578.53;5089354;28;20035;-71
2023/03/31 06:32:05;;;;;;;9.70;6.68;;;;;;;8.29;75.78;97590.72;5090541;28;20052;-71
2023/03/31 06:34:30;;;;;;;10.18;6.00;;;;;;;8.39;75.99;97583.41;5089865;28;20046;-71
2023/03/31 06:36:56;;;;;;;10.25;6.13;;;;;;;8.49;76.00;97581.34;5083162;28;20031;-70
2023/03/31 06:39:22;;;;;;;10.25;5.97;;;;;;;8.58;75.48;97581.41;5090102;28;20043;-70
2023/03/31 06:41:47;;;;;;;9.02;5.85;;;;;;;8.69;75.22;97583.97;5086327;28;20111;-71
2023/03/31 06:44:15;;;;;;;18.10;10.18;;;;;;;8.79;76.01;97576.34;5059316;28;20025;-70
2023/03/31 06:46:41;;;;;;;18.20;10.93;;;;;;;8.89;75.31;97583.50;5059224;28;20098;-70
2023/03/31 06:49:07;;;;;;;19.00;9.88;;;;;;;8.98;75.71;97586.31;5057616;28;20029;-71
2023/03/31 06:51:32;;;;;;;13.32;6.95;;;;;;;9.06;75.58;97579.31;5057182;28;20020;-71
2023/03/31 06:53:57;;;;;;;23.45;13.05;;;;;;;9.14;75.05;97584.06;5049300;28;20032;-70
2023/03/31 06:56:23;;;;;;;12.65;7.65;;;;;;;9.20;75.18;97582.81;5053121;28;20534;-70
2023/03/31 06:58:48;;;;;;;8.73;5.82;;;;;;;9.26;74.57;97578.06;5067668;28;20052;-70
2023/03/31 07:01:14;;;;;;;12.05;6.38;;;;;;;9.33;74.40;97583.09;5068037;28;20023;-71
2023/03/31 07:03:39;;;;;;;14.38;6.93;;;;;;;9.40;74.64;97572.53;5051095;28;20024;-72
2023/03/31 07:06:05;;;;;;;10.88;7.22;;;;;;;9.50;74.09;97566.00;5063772;28;20496;-71
2023/03/31 07:08:30;;;;;;;7.80;5.00;;;;;;;9.60;74.24;97571.22;5052716;28;20021;-70
2023/03/31 07:10:58;;;;;;;11.93;6.88;;;;;;;9.68;74.12;97565.00;5058217;28;20017;-71
2023/03/31 07:13:25;;;;;;;10.27;6.65;;;;;;;9.75;74.16;97569.22;5066986;28;20036;-71
2023/03/31 07:15:51;;;;;;;14.63;8.15;;;;;;;9.81;73.73;97557.00;5067654;28;20089;-70
2023/03/31 07:18:17;;;;;;;13.90;9.55;;;;;;;9.89;73.59;97549.97;5058354;28;20029;-70
2023/03/31 07:20:43;;;;;;;13.55;6.97;;;;;;;10.03;73.38;97555.34;5049271;28;20029;-70
2023/03/31 07:23:09;;;;;;;11.45;6.40;;;;;;;10.11;73.48;97558.13;5066050;28;20039;-69
2023/03/31 07:25:35;;;;;;;9.40;6.50;;;;;;;10.23;73.71;97549.31;5069669;28;20033;-71
2023/03/31 07:28:03;;;;;;;9.63;5.88;;;;;;;10.32;72.71;97551.28;5057888;28;20362;-69
2023/03/31 07:30:28;;;;;;;13.18;8.10;;;;;;;10.33;72.60;97547.41;5052736;28;20033;-70
2023/03/31 07:32:54;;;;;;;10.95;5.68;;;;;;;10.39;71.56;97548.94;5053897;28;20040;-70
2023/03/31 07:35:20;;;;;;;10.10;5.10;;;;;;;10.41;71.19;97544.72;5049780;28;20560;-70
2023/03/31 07:37:48;;;;;;;10.20;6.00;;;;;;;10.45;71.07;97539.44;5064360;28;20028;-71
2023/03/31 07:40:17;;;;;;;11.52;7.35;;;;;;;10.50;71.29;97531.06;5060198;28;20028;-69
2023/03/31 07:42:43;;;;;;;11.55;6.72;;;;;;;10.56;71.08;97534.47;5074890;28;20047;-70
2023/03/31 07:45:09;;;;;;;15.88;9.90;;;;;;;10.64;71.06;97544.66;5087636;28;20550;-68
2023/03/31 07:47:35;;;;;;;10.88;6.57;;;;;;;10.74;71.29;97540.00;5084546;28;20115;-71
2023/03/31 07:50:01;;;;;;;7.55;5.07;;;;;;;10.83;71.46;97541.59;5088474;28;20039;-69
2023/03/31 07:52:26;;;;;;;12.23;8.07;;;;;;;10.91;70.56;97542.75;5088764;28;20368;-69
2023/03/31 07:54:52;;;;;;;15.75;9.40;;;;;;;10.98;70.62;97537.59;5087974;28;20028;-70
2023/03/31 07:57:18;;;;;;;10.23;5.95;;;;;;;11.03;70.06;97533.88;5088787;28;20047;-69
2023/03/31 07:59:44;;;;;;;11.20;6.68;;;;;;;11.06;69.91;97532.44;5086218;28;20189;-70
2023/03/31 08:02:12;;;;;;;9.75;5.60;;;;;;;11.00;70.08;97523.56;5085397;28;20500;-70
2023/03/31 08:04:37;;;;;;;10.15;6.25;;;;;;;10.98;69.77;97521.13;5086123;28;20109;-70
2023/03/31 08:07:03;;;;;;;22.35;12.00;;;;;;;10.95;69.55;97529.22;5087360;28;20111;-71
2023/03/31 08:09:29;;;;;;;21.48;13.00;;;;;;;10.90;69.18;97510.16;5088153;28;20077;-69
2023/03/31 08:11:54;;;;;;;11.60;7.55;;;;;;;10.87;69.63;97506.09;5091076;28;20345;-68
2023/03/31 08:14:20;;;;;;;11.93;7.10;;;;;;;10.91;68.82;97507.09;5092855;28;20449;-71
2023/03/31 08:16:45;;;;;;;10.88;6.60;;;;;;;10.92;69.83;97500.47;5089987;28;20039;-71
2023/03/31 08:19:10;;;;;;;9.38;6.25;;;;;;;10.93;69.09;97488.38;5092973;28;20024;-70
2023/03/31 08:21:36;;;;;;;8.30;4.30;;;;;;;10.97;69.07;97486.59;5089048;28;20032;-71
2023/03/31 08:24:01;;;;;;;9.02;4.90;;;;;;;11.05;69.67;97487.72;5092372;28;20066;-70
2023/03/31 08:26:27;;;;;;;10.23;5.70;;;;;;;11.13;69.05;97473.19;5090964;28;20491;-71
2023/03/31 08:28:52;;;;;;;11.32;8.02;;;;;;;11.19;68.79;97476.59;5090983;28;20036;-72
2023/03/31 08:31:20;;;;;;;11.65;7.10;;;;;;;11.24;69.28;97470.13;5092221;28;20027;-72
2023/03/31 08:33:46;;;;;;;11.00;6.63;;;;;;;11.28;68.94;97469.13;5092049;28;20103;-71
2023/03/31 08:36:12;;;;;;;10.90;7.13;;;;;;;11.33;68.33;97465.44;5091843;28;20036;-69
2023/03/31 08:38:40;;;;;;;8.63;5.60;;;;;;;11.38;68.23;97456.19;5092856;28;20031;-69
2023/03/31 08:41:13;;;;;;;10.10;5.82;;;;;;;11.43;68.35;97456.03;5087980;28;20031;-69
2023/03/31 08:43:45;;;;;;;9.23;5.25;;;;;;;11.49;68.68;97456.66;5088942;28;20106;-69
2023/03/31 08:46:14;;;;;;;9.57;5.82;;;;;;;11.59;68.25;97448.91;5087788;28;20067;-71
2023/03/31 08:48:53;;;;;;;8.32;5.78;;;;;;;11.75;68.07;97451.91;5087688;28;20028;-71
2023/03/31 08:51:24;;;;;;;8.88;5.00;;;;;;;11.93;67.91;97445.53;5087190;28;20351;-70
2023/03/31 08:54:13;;;;;;;18.20;11.20;;;;;;;12.09;68.10;97446.59;5089477;28;20028;-71
2023/03/31 08:56:43;;;;;;;11.30;6.53;;;;;;;12.23;67.11;97445.56;5090887;28;20039;-69
2023/03/31 08:59:31;;;;;;;10.93;6.32;;;;;;;12.31;67.17;97441.97;5091284;28;20059;-70
2023/03/31 09:02:24;;;;;;;8.63;5.00;;;;;;;12.44;66.98;97437.34;5090341;28;20024;-71
2023/03/31 09:05:13;;;;;;;10.65;6.15;;;;;;;12.57;67.04;97441.81;5077222;28;20043;-70
2023/03/31 09:08:01;;;;;;;9.80;4.30;;;;;;;12.70;66.17;97428.91;5091037;28;20107;-70
2023/03/31 09:10:40;;;;;;;6.50;3.10;;;;;;;12.84;66.60;97417.63;5088473;28;20032;-71
2023/03/31 09:13:08;;;;;;;10.25;4.50;;;;;;;13.01;66.50;97407.63;5090716;28;20534;-71
2023/03/31 09:16:00;;;;;;;9.95;5.20;;;;;;;13.21;66.05;97408.72;5091891;28;20056;-71
2023/03/31 09:18:32;;;;;;;8.88;4.15;;;;;;;13.28;65.30;97403.44;5089021;28;20034;-71
2023/03/31 09:21:17;;;;;;;7.90;4.35;;;;;;;13.30;65.10;97405.88;5088462;28;20075;-70
2023/03/31 09:23:52;;;;;;;7.20;4.78;;;;;;;13.28;65.05;97402.66;5088230;28;20050;-71
2023/03/31 09:26:34;;;;;;;8.35;4.65;;;;;;;13.29;64.66;97394.03;5089474;28;20032;-71
2023/03/31 09:29:02;;;;;;;8.02;4.32;;;;;;;13.34;64.47;97399.34;5091263;28;20063;-71
2023/03/31 09:31:28;;;;;;;10.50;5.28;;;;;;;13.39;63.66;97410.13;5090232;28;20028;-71
2023/03/31 09:34:00;;;;;;;7.63;4.60;;;;;;;13.40;63.86;97400.72;5092028;28;20416;-72
2023/03/31 09:36:26;;;;;;;7.60;3.78;;;;;;;13.47;63.81;97391.94;5091609;28;20070;-72
2023/03/31 09:38:51;;;;;;;9.35;5.00;;;;;;;13.60;63.94;97392.78;5091937;28;20056;-72
2023/03/31 09:41:20;;;;;;;10.27;6.15;;;;;;;13.69;63.49;97401.72;5086126;28;20476;-72
2023/03/31 09:43:48;;;;;;;8.00;4.37;;;;;;;13.70;63.45;97386.00;5083145;28;20082;-72
2023/03/31 09:46:34;;;;;;;6.93;4.20;;;;;;;13.68;62.88;97402.06;5091800;28;20675;-72
2023/03/31 09:49:11;;;;;;;10.45;5.60;;;;;;;13.62;62.92;97384.97;5080013;28;20366;-72
2023/03/31 09:51:40;;;;;;;8.88;5.53;;;;;;;13.62;62.68;97384.16;5089669;28;20078;-71
2023/03/31 09:54:18;;;;;;;11.48;7.30;;;;;;;13.64;62.89;97373.59;5090784;28;20119;-71
2023/03/31 09:56:47;;;;;;;12.10;8.23;;;;;;;13.66;62.17;97363.03;5091454;28;20103;-71
2023/03/31 09:59:22;;;;;;;13.35;7.53;;;;;;;13.66;62.20;97355.56;5072677;28;20020;-71
2023/03/31 10:01:55;;;;;;;14.05;9.13;;;;;;;13.69;62.22;97345.81;5090645;28;20107;-70
2023/03/31 10:04:26;;;;;;;16.17;8.90;;;;;;;13.75;62.93;97351.91;5091300;28;20038;-71
2023/03/31 10:06:54;;;;;;;12.60;6.60;;;;;;;13.82;62.81;97347.44;5071705;28;20025;-70
2023/03/31 10:09:25;;;;;;;10.93;7.63;;;;;;;13.88;62.80;97325.94;5071690;28;20648;-72
2023/03/31 10:12:03;;;;;;;8.65;5.70;;;;;;;14.02;62.41;97324.78;5071676;28;20491;-72
2023/03/31 10:14:42;;;;;;;9.90;6.05;;;;;;;14.09;62.59;97327.75;5084957;28;20554;-72
2023/03/31 10:17:14;;;;;;;8.02;4.13;;;;;;;14.15;62.10;97320.84;5085872;28;20024;-72
2023/03/31 10:19:56;;;;;;;7.72;4.80;;;;;;;14.24;62.01;97323.50;5071488;28;20028;-71
2023/03/31 10:22:22;;;;;;;7.15;3.83;;;;;;;14.29;61.58;97323.22;5071358;28;20028;-71
2023/03/31 10:24:49;;;;;;;13.52;6.00;;;;;;;14.34;62.02;97324.94;5071608;28;20039;-71
2023/03/31 10:27:23;;;;;;;10.48;3.10;;;;;;;14.38;61.90;97315.63;5071533;28;20028;-72
2023/03/31 10:29:57;;;;;;;9.02;4.03;;;;;;;14.42;62.02;97319.28;5071149;28;20053;-71
2023/03/31 10:32:28;;;;;;;7.13;4.07;;;;;;;14.46;60.52;97316.66;5071001;28;20027;-71
2023/03/31 10:35:03;;;;;;;6.28;3.25;;;;;;;14.41;60.74;97314.13;5073504;28;20084;-71
2023/03/31 10:37:30;;;;;;;8.77;5.13;;;;;;;14.39;59.98;97311.72;5071505;28;20028;-71
2023/03/31 10:39:59;;;;;;;8.43;4.07;;;;;;;14.36;60.86;97306.09;5071321;28;20028;-71
2023/03/31 10:42:26;;;;;;;12.05;5.15;;;;;;;14.40;60.39;97318.84;5074346;28;20051;-71
2023/03/31 10:45:22;;;;;;;7.78;4.43;;;;;;;14.39;60.66;97306.19;5091089;28;20040;-70
2023/03/31 10:47:51;;;;;;;7.68;5.35;;;;;;;14.36;60.53;97304.13;5088558;28;20028;-71
2023/03/31 10:50:17;;;;;;;8.40;5.10;;;;;;;14.33;60.63;97301.28;5091143;28;20020;-71
2023/03/31 10:52:45;;;;;;;12.82;7.28;;;;;;;14.29;60.55;97298.41;5090972;28;20113;-71
2023/03/31 10:55:23;;;;;;;10.60;6.57;;;;;;;14.23;60.45;97305.34;5091396;28;20479;-72
2023/03/31 10:58:00;;;;;;;10.45;5.38;;;;;;;14.17;59.81;97295.69;5073373;28;20748;-71
2023/03/31 11:00:57;;;;;;;9.90;4.82;;;;;;;14.08;59.46;97291.13;5090729;28;20549;-71
2023/03/31 11:03:51;;;;;;;10.35;5.45;;;;;;;14.04;60.16;97289.41;5076266;28;20070;-71
2023/03/31 11:06:28;;;;;;;9.20;4.40;;;;;;;14.02;60.23;97286.19;5081884;28;20036;-72
2023/03/31 11:09:19;;;;;;;8.65;4.00;;;;;;;14.03;59.97;97287.81;5086664;28;20115;-70
2023/03/31 11:12:03;;;;;;;9.27;4.40;;;;;;;14.04;59.99;97267.38;5071045;28;20434;-69
2023/03/31 11:14:29;;;;;;;9.02;5.18;;;;;;;14.10;60.04;97271.47;5089886;28;20491;-70
2023/03/31 11:16:57;;;;;;;8.35;4.60;;;;;;;14.16;60.32;97261.78;5087466;28;20031;-70
2023/03/31 11:19:41;;;;;;;8.18;3.70;;;;;;;14.26;60.41;97260.53;5087748;28;20032;-69
2023/03/31 11:22:33;;;;;;;9.95;3.53;;;;;;;14.41;61.00;97250.69;5088625;28;20044;-70
2023/03/31 11:25:09;;;;;;;7.15;3.33;;;;;;;14.52;60.01;97243.50;5084500;28;20028;-70
2023/03/31 11:27:40;;;;;;;5.75;2.83;;;;;;;14.64;59.21;97241.84;5089309;28;20032;-70
2023/03/31 11:30:27;;;;;;;5.93;3.20;;;;;;;14.70;58.79;97232.19;5089400;28;20032;-69
2023/03/31 11:33:14;;;;;;;9.50;2.92;;;;;;;14.79;58.31;97238.34;5088308;28;20024;-74
2023/03/31 11:35:53;;;;;;;6.18;1.90;;;;;;;14.85;56.99;97230.59;5088535;28;20389;-71
2023/03/31 11:38:43;;;;;;;4.60;1.40;;;;;;;14.88;56.85;97214.09;5085857;28;20123;-70
2023/03/31 11:41:16;;;;;;;8.85;3.85;;;;;;;15.01;57.21;97211.25;5086670;28;20024;-71
2023/03/31 11:43:47;;;;;;;7.40;2.60;;;;;;;15.15;56.31;97202.53;5085701;28;20060;-70
2023/03/31 11:46:19;;;;;;;6.47;2.70;;;;;;;15.23;55.47;97203.53;5088515;28;20072;-70